Time;durP1;ratioP1;P1;durP2;ratioP2;P2;SDS_P1;SDS_P2;PMS_P1;PMS_P2;Temp;Humidity;BMP_temperature;BMP_pressure;BME280_temperature;BME280_humidity;BME280_pressure;Samples;Min_cycle;Max_cycle;Signal;HPM_P1;HPM_P2
2022/11/17 02:47:49;;;;;;;3.38;1.20;;;;;;;11.18;73.50;97812.28;1086967;47;20052;-76
2022/11/17 02:48:57;;;;;;;2.80;1.10;;;;;;;11.26;73.49;97808.63;1087474;54;21138;-78
2022/11/17 02:50:06;;;;;;;5.25;1.20;;;;;;;11.29;73.78;97806.34;1091486;39;20789;-78
2022/11/17 02:51:12;;;;;;;3.53;1.30;;;;;;;11.32;73.94;97808.63;1087416;54;20046;-77
2022/11/17 02:52:18;;;;;;;3.78;1.40;;;;;;;11.29;73.62;97808.22;1087416;54;20701;-78
2022/11/17 02:53:23;;;;;;;5.15;1.50;;;;;;;11.36;73.64;97803.69;1087442;54;20043;-77
2022/11/17 02:54:30;;;;;;;3.20;1.55;;;;;;;11.45;73.47;97796.28;1087451;54;20030;-77
2022/11/17 02:55:34;;;;;;;2.95;1.00;;;;;;;11.50;73.10;97785.78;1087099;54;20061;-76
2022/11/17 02:56:43;;;;;;;2.95;1.17;;;;;;;11.51;72.64;97784.75;1087363;54;20037;-79
2022/11/17 02:57:44;;;;;;;2.97;1.13;;;;;;;11.52;72.96;97781.88;1087453;54;20046;-76
2022/11/17 02:58:52;;;;;;;3.97;1.70;;;;;;;11.43;73.37;97774.28;1087455;54;20031;-77
2022/11/17 02:59:54;;;;;;;4.07;2.10;;;;;;;11.39;74.04;97788.06;1087216;54;20035;-76
2022/11/17 03:01:17;;;;;;;6.53;2.33;;;;;;;11.31;74.17;97780.22;1087399;54;20030;-77
2022/11/17 03:03:02;;;;;;;5.10;2.40;;;;;;;11.37;73.97;97773.25;1087341;54;20122;-77
2022/11/17 03:04:35;;;;;;;4.82;2.28;;;;;;;11.35;74.19;97768.06;1087850;46;20038;-77
2022/11/17 03:05:51;;;;;;;6.15;3.20;;;;;;;11.29;74.74;97765.41;1087016;54;20027;-77
2022/11/17 03:07:05;;;;;;;5.43;2.80;;;;;;;11.17;74.42;97746.47;1086930;54;20038;-76
2022/11/17 03:08:25;;;;;;;5.40;2.78;;;;;;;11.17;74.88;97752.66;1087403;54;20126;-77
2022/11/17 03:09:37;;;;;;;4.97;2.80;;;;;;;11.20;74.67;97752.22;1088104;47;20034;-75
2022/11/17 03:10:51;;;;;;;5.45;2.72;;;;;;;11.23;74.73;97748.34;1087388;54;20073;-77
2022/11/17 03:12:01;;;;;;;6.25;3.00;;;;;;;11.14;75.25;97757.59;1097920;31;20756;-77
2022/11/17 03:13:12;;;;;;;6.28;2.97;;;;;;;11.12;75.46;97755.09;1087447;54;20959;-76
2022/11/17 03:14:24;;;;;;;5.65;2.97;;;;;;;11.06;75.38;97764.75;1087466;54;20035;-76
2022/11/17 03:15:37;;;;;;;6.35;2.92;;;;;;;10.98;75.47;97766.81;1087384;54;20060;-77
2022/11/17 03:16:50;;;;;;;5.13;2.60;;;;;;;10.95;75.98;97777.91;1087329;54;20034;-76
2022/11/17 03:18:04;;;;;;;5.45;2.80;;;;;;;11.00;75.97;97778.94;1087439;54;20094;-76
2022/11/17 03:19:17;;;;;;;5.75;2.50;;;;;;;10.96;75.73;97771.53;1087456;54;20513;-76
2022/11/17 03:20:25;;;;;;;5.32;2.15;;;;;;;11.00;75.67;97775.47;1087410;54;20071;-76
2022/11/17 03:21:33;;;;;;;6.72;2.30;;;;;;;11.03;75.47;97775.03;1087576;54;20103;-76
2022/11/17 03:22:43;;;;;;;5.60;2.25;;;;;;;11.02;75.95;97781.41;1087421;54;21157;-77
2022/11/17 03:23:52;;;;;;;6.85;2.65;;;;;;;11.04;75.65;97780.22;1087601;54;20030;-77
2022/11/17 03:24:58;;;;;;;4.60;2.10;;;;;;;11.10;75.84;97775.06;1087486;47;20053;-76
2022/11/17 03:26:09;;;;;;;5.25;2.40;;;;;;;11.17;75.47;97773.22;1087476;54;20081;-76
2022/11/17 03:27:14;;;;;;;4.15;2.10;;;;;;;11.09;75.82;97787.63;1087490;54;20026;-76
2022/11/17 03:28:21;;;;;;;4.22;2.40;;;;;;;10.90;76.29;97794.56;1087587;54;20031;-76
2022/11/17 03:29:27;;;;;;;5.32;2.22;;;;;;;10.67;77.01;97801.09;1087506;54;20046;-77
2022/11/17 03:30:32;;;;;;;5.38;3.22;;;;;;;10.58;77.45;97821.00;1087512;54;20098;-76
2022/11/17 03:31:36;;;;;;;5.28;1.90;;;;;;;10.58;77.43;97834.34;1087403;54;20069;-78
2022/11/17 03:32:43;;;;;;;6.38;1.60;;;;;;;10.51;77.27;97834.31;1092109;39;20692;-78
2022/11/17 03:33:48;;;;;;;6.25;1.65;;;;;;;10.48;76.92;97834.69;1087536;54;20057;-78
2022/11/17 03:34:57;;;;;;;5.10;1.73;;;;;;;10.50;76.88;97834.50;1087669;54;20026;-78
2022/11/17 03:36:06;;;;;;;4.15;1.60;;;;;;;10.58;76.47;97823.66;1087466;54;20049;-77
2022/11/17 03:37:14;;;;;;;3.42;1.00;;;;;;;10.60;76.13;97824.25;1087309;54;20050;-76
2022/11/17 03:38:17;;;;;;;3.78;1.35;;;;;;;10.68;75.84;97801.91;1090852;39;20681;-76
2022/11/17 03:39:25;;;;;;;3.80;1.60;;;;;;;10.83;75.12;97788.38;1087426;54;20086;-79
2022/11/17 03:40:30;;;;;;;4.05;1.35;;;;;;;10.96;74.86;97792.94;1087349;54;20098;-77
2022/11/17 03:41:39;;;;;;;4.45;1.10;;;;;;;10.74;74.96;97801.09;1087108;54;20026;-76
2022/11/17 03:42:45;;;;;;;3.30;1.38;;;;;;;10.85;74.94;97799.69;1087399;54;20073;-76
2022/11/17 03:43:50;;;;;;;2.88;1.17;;;;;;;10.98;74.27;97799.72;1087998;47;20031;-76
2022/11/17 03:44:55;;;;;;;3.17;1.70;;;;;;;11.09;74.17;97787.63;1087204;54;20061;-77
2022/11/17 03:46:05;;;;;;;2.78;1.30;;;;;;;11.12;74.07;97781.84;1087944;47;20054;-77
2022/11/17 03:47:10;;;;;;;4.90;1.90;;;;;;;11.04;74.17;97785.56;1088075;47;20058;-76
2022/11/17 03:48:18;;;;;;;2.83;1.30;;;;;;;11.16;73.77;97785.78;1087579;47;20030;-76
2022/11/17 03:49:26;;;;;;;2.78;1.02;;;;;;;11.11;73.96;97788.22;1087574;54;20019;-77
2022/11/17 03:50:36;;;;;;;3.10;1.45;;;;;;;11.04;74.29;97788.22;1087295;54;20053;-76
2022/11/17 03:51:41;;;;;;;4.38;1.50;;;;;;;10.86;74.71;97793.31;1087496;54;20039;-76
2022/11/17 03:52:46;;;;;;;4.90;1.52;;;;;;;10.79;75.43;97797.81;1087462;54;20717;-76
2022/11/17 03:53:48;;;;;;;5.95;2.17;;;;;;;10.84;75.24;97801.53;1087452;54;20042;-76
2022/11/17 03:54:53;;;;;;;4.68;1.25;;;;;;;10.96;74.97;97798.28;1087331;54;20027;-78
2022/11/17 03:56:00;;;;;;;3.50;1.20;;;;;;;10.98;74.64;97794.38;1087427;54;20023;-76
2022/11/17 03:57:09;;;;;;;5.25;1.70;;;;;;;10.79;74.72;97789.78;1087343;54;20030;-76
2022/11/17 03:58:16;;;;;;;5.32;1.95;;;;;;;10.88;74.70;97785.91;1087348;54;20032;-76
2022/11/17 03:59:26;;;;;;;5.35;1.67;;;;;;;10.87;74.75;97789.59;1087452;54;20037;-76
2022/11/17 04:00:27;;;;;;;3.88;1.58;;;;;;;10.83;75.03;97783.03;1087351;54;20070;-77
2022/11/17 04:01:34;;;;;;;4.15;1.50;;;;;;;10.91;74.88;97777.50;1087391;54;20023;-77
2022/11/17 04:02:36;;;;;;;4.63;2.42;;;;;;;10.99;74.54;97766.59;1087303;54;20050;-76
2022/11/17 04:03:41;;;;;;;4.28;1.95;;;;;;;11.05;74.34;97765.78;1087248;54;20031;-77
2022/11/17 04:06:02;;;;;;;4.35;2.08;;;;;;;10.90;74.62;97786.53;1088648;47;20758;-77
2022/11/17 04:07:06;;;;;;;5.15;2.70;;;;;;;10.82;74.76;97782.19;1087320;54;20019;-76
2022/11/17 04:08:10;;;;;;;4.03;1.60;;;;;;;10.88;74.43;97780.56;1087629;54;20026;-76
2022/11/17 04:09:12;;;;;;;5.18;2.03;;;;;;;10.98;73.92;97781.00;1087636;54;20717;-77
2022/11/17 04:10:19;;;;;;;5.03;1.98;;;;;;;11.06;73.55;97785.34;1087623;54;20026;-78
2022/11/17 04:16:29;;;;;;;5.25;1.98;;;;;;;10.83;74.11;97807.09;1087568;54;20035;-77
2022/11/17 04:17:31;;;;;;;4.78;2.13;;;;;;;10.72;74.71;97811.97;1087798;46;20034;-76
2022/11/17 04:18:35;;;;;;;4.15;2.00;;;;;;;10.72;74.44;97813.84;1087692;54;20090;-77
2022/11/17 04:19:36;;;;;;;3.72;2.15;;;;;;;10.62;75.15;97816.88;1087585;54;20034;-77
2022/11/17 04:20:41;;;;;;;4.78;2.22;;;;;;;10.74;74.89;97817.13;1087540;54;20011;-77
2022/11/17 04:21:42;;;;;;;4.72;2.33;;;;;;;10.70;74.94;97815.88;1087666;54;20041;-77
2022/11/17 04:23:05;;;;;;;4.70;2.50;;;;;;;10.59;75.82;97819.94;1087548;54;20014;-78
2022/11/17 04:24:10;;;;;;;4.57;2.30;;;;;;;10.75;75.29;97808.06;1087669;54;20046;-77
2022/11/17 04:28:35;;;;;;;4.57;2.10;;;;;;;10.87;74.66;97805.63;1087637;54;20034;-77
2022/11/17 04:29:09;;;;;;;4.25;1.80;;;;;;;10.85;75.10;97805.03;1087684;54;20035;-77
2022/11/17 04:30:11;;;;;;;3.97;1.70;;;;;;;10.79;75.27;97803.16;1087716;54;20030;-78
2022/11/17 04:31:17;;;;;;;5.03;1.65;;;;;;;10.73;75.40;97805.63;1087645;54;20033;-78
2022/11/17 04:32:18;;;;;;;3.35;1.42;;;;;;;10.73;75.81;97794.94;1089104;46;20018;-77
2022/11/17 04:33:23;;;;;;;3.03;1.33;;;;;;;10.82;75.49;97776.03;1087633;54;20037;-77
2022/11/17 04:34:27;;;;;;;2.55;1.08;;;;;;;10.81;75.51;97763.69;1087960;46;20716;-77
2022/11/17 04:35:31;;;;;;;4.85;1.40;;;;;;;10.79;75.45;97768.41;1087645;54;20022;-77
2022/11/17 04:36:39;;;;;;;3.47;1.25;;;;;;;10.81;75.27;97788.59;1087651;54;20054;-77
2022/11/17 04:37:41;;;;;;;3.53;1.42;;;;;;;10.82;75.04;97781.38;1087460;54;20062;-76
2022/11/17 04:38:49;;;;;;;3.30;1.35;;;;;;;10.89;74.88;97768.84;1087614;54;20030;-77
2022/11/17 04:39:51;;;;;;;4.32;1.38;;;;;;;10.75;75.57;97771.50;1087618;54;20053;-77
2022/11/17 04:42:11;;;;;;;6.43;1.52;;;;;;;10.70;75.48;97773.94;1087460;54;20018;-77
2022/11/17 04:43:13;;;;;;;3.65;1.80;;;;;;;10.71;75.68;97774.78;1087386;54;20053;-77
2022/11/17 04:44:16;;;;;;;4.32;1.50;;;;;;;10.68;75.71;97775.19;1087346;54;20010;-77
2022/11/17 04:45:20;;;;;;;3.47;1.63;;;;;;;10.71;76.00;97770.25;1087333;54;20046;-77
2022/11/17 04:46:23;;;;;;;4.97;1.80;;;;;;;10.71;75.86;97767.56;1089803;39;20995;-77
2022/11/17 04:47:27;;;;;;;6.35;1.90;;;;;;;10.68;76.13;97765.28;1087408;54;20023;-77
2022/11/17 04:48:28;;;;;;;4.32;1.42;;;;;;;10.78;75.70;97764.94;1087220;54;20069;-78
2022/11/17 04:49:33;;;;;;;3.97;2.00;;;;;;;10.78;75.39;97751.56;1086897;54;20030;-76
2022/11/17 04:50:35;;;;;;;3.55;1.50;;;;;;;10.75;75.76;97754.63;1087447;54;20057;-77
2022/11/17 04:51:39;;;;;;;4.43;1.80;;;;;;;10.72;76.11;97755.88;1090706;39;20664;-78
2022/11/17 04:52:41;;;;;;;3.95;1.50;;;;;;;10.74;75.81;97740.47;1087504;54;20034;-77
2022/11/17 04:53:48;;;;;;;3.72;1.77;;;;;;;10.73;75.94;97744.16;1087464;54;20037;-77
2022/11/17 04:54:52;;;;;;;5.35;2.15;;;;;;;10.69;76.33;97756.25;1087483;54;20065;-77
2022/11/17 04:55:58;;;;;;;3.78;1.50;;;;;;;10.80;75.81;97759.38;1087146;54;20042;-76
2022/11/17 04:57:02;;;;;;;2.97;1.15;;;;;;;10.74;76.05;97761.84;1087999;46;20026;-77
2022/11/17 04:58:04;;;;;;;4.18;1.45;;;;;;;10.63;76.17;97761.59;1087483;54;20039;-77
2022/11/17 04:59:09;;;;;;;4.00;1.63;;;;;;;10.67;76.58;97766.34;1087433;54;20037;-77
2022/11/17 05:00:12;;;;;;;6.28;1.90;;;;;;;10.69;76.57;97764.28;1087424;54;20772;-77
2022/11/17 05:01:18;;;;;;;3.63;1.65;;;;;;;10.68;76.46;97759.13;1087244;54;20030;-77
2022/11/17 05:02:35;;;;;;;4.57;1.88;;;;;;;10.65;76.32;97764.88;1088133;46;20745;-76
2022/11/17 05:03:49;;;;;;;4.35;1.70;;;;;;;10.56;77.07;97761.59;1087256;54;21333;-77
2022/11/17 05:05:05;;;;;;;4.15;1.73;;;;;;;10.61;76.62;97765.31;1086846;54;20044;-77
2022/11/17 05:06:18;;;;;;;3.20;1.40;;;;;;;10.64;76.42;97769.41;1087371;54;20153;-77
2022/11/17 05:07:36;;;;;;;4.72;1.75;;;;;;;10.73;76.22;97756.69;1086921;54;20046;-77
2022/11/17 05:08:54;;;;;;;5.13;1.65;;;;;;;10.79;75.84;97761.22;1092955;39;20273;-77
2022/11/17 05:10:13;;;;;;;5.18;1.40;;;;;;;10.79;75.81;97763.06;1086976;54;20061;-77
2022/11/17 05:14:26;;;;;;;4.93;1.70;;;;;;;10.71;76.63;97778.25;1087122;54;20031;-77
2022/11/17 05:17:14;;;;;;;4.90;1.65;;;;;;;10.66;77.22;97767.38;1086903;54;20026;-76
2022/11/17 05:18:20;;;;;;;4.95;1.98;;;;;;;10.58;77.50;97764.88;1086752;54;20038;-77
2022/11/17 05:19:45;;;;;;;4.95;2.00;;;;;;;10.68;77.37;97759.94;1086998;54;20035;-76
2022/11/17 05:20:47;;;;;;;4.03;1.83;;;;;;;10.69;77.04;97758.13;1086754;54;20031;-77
2022/11/17 05:21:51;;;;;;;3.50;1.60;;;;;;;10.61;77.28;97759.97;1087288;46;20041;-76
2022/11/17 05:24:13;;;;;;;4.85;2.00;;;;;;;10.56;77.78;97758.91;1087039;54;20102;-76
2022/11/17 05:25:17;;;;;;;5.20;2.13;;;;;;;10.59;78.14;97755.81;1087176;39;20616;-78
2022/11/17 05:26:19;;;;;;;4.45;1.85;;;;;;;10.70;77.74;97763.25;1086774;54;20069;-76
2022/11/17 05:27:25;;;;;;;4.50;2.05;;;;;;;10.49;78.40;97764.22;1088911;39;21059;-77
2022/11/17 05:28:26;;;;;;;4.10;2.15;;;;;;;10.51;78.50;97764.00;1089362;39;21094;-77
2022/11/17 05:29:30;;;;;;;6.20;2.10;;;;;;;10.53;78.53;97764.63;1086930;54;20027;-77
2022/11/17 05:30:32;;;;;;;3.53;1.58;;;;;;;10.63;77.94;97764.28;1086839;54;20065;-76
2022/11/17 05:31:36;;;;;;;3.92;1.70;;;;;;;10.53;78.17;97759.31;1086860;54;20026;-77
2022/11/17 05:32:38;;;;;;;5.78;2.58;;;;;;;10.64;78.03;97763.22;1087024;54;20066;-76
2022/11/17 05:33:43;;;;;;;4.07;1.60;;;;;;;10.68;77.96;97765.28;1087738;46;20050;-77
2022/11/17 05:34:44;;;;;;;4.55;1.90;;;;;;;10.61;78.23;97769.81;1086640;54;20046;-75
2022/11/17 05:35:48;;;;;;;5.22;2.28;;;;;;;10.72;77.64;97757.72;1087348;46;20042;-77
2022/11/17 05:36:50;;;;;;;7.28;2.13;;;;;;;10.66;78.02;97761.19;1087837;31;20842;-77
2022/11/17 05:37:54;;;;;;;4.22;2.28;;;;;;;10.57;78.24;97749.88;1087035;54;20035;-77
2022/11/17 05:38:55;;;;;;;3.90;1.92;;;;;;;10.61;77.84;97756.44;1086821;54;20824;-78
2022/11/17 05:40:02;;;;;;;4.57;1.60;;;;;;;10.54;78.31;97760.94;1087089;54;20030;-77
2022/11/17 05:41:04;;;;;;;4.68;1.88;;;;;;;10.55;78.49;97754.59;1087000;54;20038;-77
2022/11/17 05:42:08;;;;;;;4.53;1.77;;;;;;;10.57;78.28;97752.53;1086971;54;20053;-79
2022/11/17 05:43:10;;;;;;;5.35;1.92;;;;;;;10.61;78.22;97753.78;1086868;54;20057;-76
2022/11/17 05:44:14;;;;;;;4.72;1.95;;;;;;;10.61;78.05;97751.09;1091055;39;21126;-78
2022/11/17 05:45:16;;;;;;;3.83;1.77;;;;;;;10.66;77.81;97754.00;1086868;54;20046;-77
2022/11/17 05:46:21;;;;;;;7.60;2.38;;;;;;;10.68;77.68;97759.13;1086744;54;20116;-77
2022/11/17 05:47:22;;;;;;;5.28;2.00;;;;;;;10.66;78.08;97756.69;1087057;46;20038;-77
2022/11/17 05:48:27;;;;;;;4.88;1.83;;;;;;;10.69;77.92;97760.78;1087694;46;20035;-77
2022/11/17 05:49:28;;;;;;;3.95;1.80;;;;;;;10.68;78.02;97770.63;1086888;54;20852;-77
2022/11/17 05:50:32;;;;;;;4.57;2.42;;;;;;;10.54;78.80;97771.63;1086461;54;20034;-77
2022/11/17 05:51:37;;;;;;;3.78;1.73;;;;;;;10.62;78.61;97779.47;1087315;54;20061;-75
2022/11/17 05:52:38;;;;;;;5.55;1.92;;;;;;;10.61;78.95;97775.16;1087279;54;20038;-77
2022/11/17 05:53:42;;;;;;;5.95;2.22;;;;;;;10.63;78.93;97772.28;1087342;54;20026;-77
2022/11/17 05:54:44;;;;;;;5.53;2.40;;;;;;;10.58;79.30;97764.88;1087184;54;20078;-76
2022/11/17 05:55:51;;;;;;;5.78;2.40;;;;;;;10.58;79.32;97770.22;1087317;54;20086;-76
2022/11/17 05:56:59;;;;;;;4.20;1.98;;;;;;;10.68;78.83;97767.97;1087255;54;20085;-76
2022/11/17 05:58:04;;;;;;;4.30;1.88;;;;;;;10.68;79.06;97770.63;1087478;54;20038;-77
2022/11/17 05:59:19;;;;;;;5.57;2.42;;;;;;;10.52;79.95;97771.00;1087317;54;20030;-76
2022/11/17 06:00:20;;;;;;;5.50;2.42;;;;;;;10.46;80.36;97777.97;1087357;54;20046;-76
2022/11/17 06:01:25;;;;;;;6.40;2.33;;;;;;;10.41;80.56;97773.22;1087206;54;20041;-76
2022/11/17 06:02:30;;;;;;;5.05;1.98;;;;;;;10.39;80.97;97785.13;1087330;54;20813;-77
2022/11/17 06:03:38;;;;;;;5.18;2.25;;;;;;;10.26;82.43;97783.19;1087310;46;20038;-75
2022/11/17 06:04:42;;;;;;;6.10;2.33;;;;;;;10.25;82.78;97792.22;1087303;54;20042;-76
2022/11/17 06:05:43;;;;;;;4.70;2.17;;;;;;;10.29;82.63;97793.50;1086849;54;20042;-77
2022/11/17 06:06:49;;;;;;;4.20;1.88;;;;;;;10.39;82.08;97793.16;1086859;46;20038;-76
2022/11/17 06:07:50;;;;;;;4.93;2.05;;;;;;;10.33;82.28;97789.38;1087006;54;20073;-78
2022/11/17 06:08:55;;;;;;;3.92;1.88;;;;;;;10.35;81.99;97787.34;1086950;54;20038;-77
2022/11/17 06:09:59;;;;;;;5.55;2.30;;;;;;;10.24;82.82;97794.09;1086837;54;20686;-77
2022/11/17 06:11:03;;;;;;;5.57;2.10;;;;;;;10.36;82.17;97799.69;1086688;54;20123;-77
2022/11/17 06:12:08;;;;;;;4.38;2.03;;;;;;;10.36;82.27;97794.34;1086977;54;20031;-76
2022/11/17 06:13:09;;;;;;;4.75;2.15;;;;;;;10.35;82.51;97792.69;1086291;54;20610;-77
2022/11/17 06:14:13;;;;;;;4.50;2.17;;;;;;;10.35;82.30;97792.69;1086864;54;20078;-76
2022/11/17 06:15:16;;;;;;;5.97;2.80;;;;;;;10.38;82.35;97783.47;1086815;54;20049;-76
2022/11/17 06:16:25;;;;;;;6.70;2.10;;;;;;;10.44;82.03;97786.19;1086843;54;20034;-76
2022/11/17 06:17:31;;;;;;;6.32;2.13;;;;;;;10.34;82.57;97782.22;1086919;54;20138;-76
2022/11/17 06:18:39;;;;;;;6.35;2.67;;;;;;;10.33;82.59;97777.91;1089586;31;20662;-75
2022/11/17 06:19:48;;;;;;;4.63;2.45;;;;;;;10.31;82.88;97775.41;1086890;54;20098;-77
2022/11/17 06:20:52;;;;;;;4.93;1.95;;;;;;;10.36;82.56;97774.81;1086861;54;20046;-77
2022/11/17 06:21:56;;;;;;;5.93;2.20;;;;;;;10.39;82.68;97777.94;1088106;46;20050;-75
2022/11/17 06:23:03;;;;;;;8.63;2.83;;;;;;;10.35;82.76;97781.16;1087245;54;20035;-79
2022/11/17 06:24:09;;;;;;;5.82;2.58;;;;;;;10.38;82.79;97787.00;1087361;39;20591;-78
2022/11/17 06:25:11;;;;;;;3.95;1.92;;;;;;;10.39;82.66;97788.63;1086949;54;20090;-77
2022/11/17 06:26:22;;;;;;;4.75;2.20;;;;;;;10.40;82.30;97778.78;1087523;39;20555;-76
2022/11/17 06:27:24;;;;;;;;;;;;;;;10.35;82.52;97798.03;1085207;54;20069;-78
2022/11/17 06:28:32;;;;;;;5.47;1.90;;;;;;;10.43;82.12;97795.22;1086072;39;20328;-77
2022/11/17 06:29:33;;;;;;;4.32;2.42;;;;;;;10.30;82.73;97790.63;1085077;54;20050;-78
2022/11/17 06:30:47;;;;;;;4.70;2.50;;;;;;;10.30;83.39;97787.94;1085109;54;20074;-82
2022/11/17 06:31:49;;;;;;;4.85;2.42;;;;;;;10.35;82.78;97786.50;1085154;54;20042;-78
2022/11/17 06:32:55;;;;;;;5.40;1.95;;;;;;;10.45;82.54;97792.34;1085512;54;20110;-76
2022/11/17 06:33:59;;;;;;;5.63;2.22;;;;;;;10.49;82.17;97790.94;1085347;54;20061;-78
2022/11/17 06:35:05;;;;;;;4.20;2.03;;;;;;;10.53;81.95;97776.13;1085337;54;20042;-80
2022/11/17 06:36:13;;;;;;;4.22;2.13;;;;;;;10.55;81.57;97775.97;1085291;54;20079;-80
2022/11/17 06:37:27;;;;;;;4.22;2.00;;;;;;;10.58;81.81;97780.91;1085666;54;20026;-80
2022/11/17 06:38:33;;;;;;;4.75;2.33;;;;;;;10.54;81.90;97783.13;1085137;54;20054;-77
2022/11/17 06:39:34;;;;;;;5.43;2.55;;;;;;;10.57;81.53;97782.75;1084985;47;20031;-77
2022/11/17 06:40:38;;;;;;;4.65;2.35;;;;;;;10.49;81.99;97787.41;1085314;54;20061;-78
2022/11/17 06:41:46;;;;;;;6.00;2.58;;;;;;;10.43;82.50;97789.88;1085248;39;20840;-79
2022/11/17 06:43:05;;;;;;;5.05;2.30;;;;;;;10.53;82.14;97783.34;1085409;47;20141;-78
2022/11/17 06:44:09;;;;;;;4.50;2.22;;;;;;;10.59;81.49;97782.53;1085904;54;20038;-80
2022/11/17 06:45:11;;;;;;;5.57;2.47;;;;;;;10.45;82.03;97787.00;1087108;31;20497;-80
2022/11/17 06:46:16;;;;;;;4.97;2.60;;;;;;;10.49;81.63;97792.75;1084874;54;20038;-79
2022/11/17 06:47:17;;;;;;;5.95;2.92;;;;;;;10.53;81.95;97800.19;1085085;54;20106;-79
2022/11/17 06:48:25;;;;;;;4.65;2.70;;;;;;;10.61;81.46;97788.50;1084928;54;20037;-78
2022/11/17 06:49:27;;;;;;;4.65;2.80;;;;;;;10.69;81.27;97798.19;1084868;54;20064;-78
2022/11/17 06:50:34;;;;;;;5.68;2.72;;;;;;;10.70;80.85;97800.66;1084645;54;20064;-77
2022/11/17 06:51:35;;;;;;;5.72;2.97;;;;;;;10.66;80.98;97803.94;1084991;54;20089;-78
2022/11/17 06:52:40;;;;;;;9.90;2.67;;;;;;;10.77;80.81;97801.50;1084769;54;20042;-80
2022/11/17 06:53:44;;;;;;;4.38;2.47;;;;;;;10.80;80.54;97800.31;1084767;54;20042;-79
2022/11/17 06:54:45;;;;;;;6.50;2.60;;;;;;;10.76;80.68;97799.03;1084499;54;20068;-79
2022/11/17 06:56:03;;;;;;;5.47;2.10;;;;;;;10.81;80.24;97801.94;1084757;54;20042;-78
2022/11/17 06:57:07;;;;;;;4.90;2.22;;;;;;;10.71;80.40;97802.31;1084543;54;20556;-79
2022/11/17 06:58:20;;;;;;;3.83;1.92;;;;;;;10.82;79.75;97803.56;1084685;54;20068;-79
2022/11/17 06:59:24;;;;;;;4.18;1.77;;;;;;;10.87;79.80;97806.47;1084717;54;20046;-79
2022/11/17 07:00:31;;;;;;;4.55;2.00;;;;;;;10.83;79.60;97791.84;1085234;39;20599;-78
2022/11/17 07:01:35;;;;;;;4.28;1.98;;;;;;;10.96;79.47;97790.25;1084854;54;20046;-79
2022/11/17 07:02:37;;;;;;;4.15;1.92;;;;;;;10.82;79.60;97781.38;1084570;54;20050;-79
2022/11/17 07:03:42;;;;;;;4.38;1.70;;;;;;;10.93;79.54;97778.94;1084704;54;20030;-80
2022/11/17 07:04:44;;;;;;;4.18;2.03;;;;;;;10.89;79.22;97784.88;1084486;54;20094;-78
2022/11/17 07:05:50;;;;;;;3.80;1.67;;;;;;;10.90;79.09;97776.69;1085064;46;20038;-82
2022/11/17 07:06:52;;;;;;;3.83;1.60;;;;;;;10.98;78.89;97775.66;1084734;39;20356;-80
2022/11/17 07:07:59;;;;;;;3.50;1.60;;;;;;;11.11;78.42;97776.72;1084337;54;20049;-78
2022/11/17 07:09:03;;;;;;;4.38;2.08;;;;;;;11.13;78.19;97778.16;1084376;54;20049;-79
2022/11/17 07:10:07;;;;;;;3.92;1.77;;;;;;;11.15;78.47;97780.59;1084270;54;20073;-80
2022/11/17 07:11:13;;;;;;;8.15;2.60;;;;;;;11.08;78.72;97776.09;1084237;54;20049;-79
2022/11/17 07:12:20;;;;;;;3.80;1.80;;;;;;;11.16;78.35;97771.56;1084422;54;20061;-80
2022/11/17 07:13:25;;;;;;;4.32;1.77;;;;;;;11.27;77.93;97759.44;1084579;54;20085;-79
2022/11/17 07:14:27;;;;;;;3.50;1.45;;;;;;;11.29;77.87;97741.34;1084300;54;20616;-80
2022/11/17 07:15:31;;;;;;;5.90;1.95;;;;;;;11.31;77.79;97742.78;1084642;39;20476;-79
2022/11/17 07:16:35;;;;;;;4.15;1.75;;;;;;;11.33;77.54;97743.41;1084198;54;20097;-79
2022/11/17 07:17:38;;;;;;;3.90;1.70;;;;;;;11.27;77.92;97762.94;1084245;54;20689;-79
2022/11/17 07:18:43;;;;;;;4.78;1.98;;;;;;;11.10;78.26;97775.06;1084164;47;20034;-80
2022/11/17 07:19:44;;;;;;;4.63;1.80;;;;;;;11.17;78.05;97778.56;1085170;39;20443;-79
2022/11/17 07:20:50;;;;;;;4.22;1.95;;;;;;;11.23;77.69;97775.91;1085230;39;20471;-79
2022/11/17 07:21:51;;;;;;;6.15;2.08;;;;;;;11.13;78.04;97769.31;1084499;54;20157;-80
2022/11/17 07:23:00;;;;;;;5.05;1.88;;;;;;;11.23;77.74;97769.75;1084549;54;20034;-79
2022/11/17 07:24:02;;;;;;;4.05;1.77;;;;;;;11.32;77.35;97771.19;1084499;54;20110;-79
2022/11/17 07:25:09;;;;;;;6.18;2.38;;;;;;;11.32;77.37;97760.47;1084293;54;20065;-78
2022/11/17 07:26:11;;;;;;;4.32;1.73;;;;;;;11.39;77.12;97763.97;1084315;54;20034;-78
2022/11/17 07:27:15;;;;;;;4.32;1.70;;;;;;;11.40;76.95;97767.47;1084040;54;20064;-78
2022/11/17 07:28:19;;;;;;;4.30;1.80;;;;;;;11.43;76.81;97767.06;1084190;54;20039;-81
2022/11/17 07:29:24;;;;;;;3.95;1.60;;;;;;;11.47;76.74;97765.63;1084094;54;20057;-80
2022/11/17 07:30:27;;;;;;;5.40;1.90;;;;;;;11.50;76.54;97767.88;1084324;54;20595;-80
2022/11/17 07:31:31;;;;;;;4.82;1.58;;;;;;;11.47;76.24;97762.97;1084329;54;20052;-79
2022/11/17 07:32:35;;;;;;;3.63;1.40;;;;;;;11.41;76.55;97765.63;1084154;54;20069;-79
2022/11/17 07:33:39;;;;;;;3.55;1.40;;;;;;;11.50;76.21;97751.81;1084236;54;20073;-79
2022/11/17 07:34:41;;;;;;;4.75;1.60;;;;;;;11.54;75.96;97752.22;1084359;54;20541;-79
2022/11/17 07:35:45;;;;;;;4.05;1.67;;;;;;;11.51;76.19;97768.72;1084076;54;20038;-80
2022/11/17 07:36:47;;;;;;;4.75;1.60;;;;;;;11.48;76.25;97766.44;1084095;54;20053;-81
2022/11/17 07:37:52;;;;;;;3.78;1.58;;;;;;;11.54;76.26;97765.59;1084668;54;20098;-78
2022/11/17 07:38:53;;;;;;;3.90;1.50;;;;;;;11.58;76.05;97769.53;1084860;54;20038;-80
2022/11/17 07:39:57;;;;;;;4.65;1.88;;;;;;;11.55;75.94;97765.41;1084252;54;20168;-78
2022/11/17 07:40:59;;;;;;;4.68;1.77;;;;;;;11.55;75.75;97760.06;1084003;54;20050;-79
2022/11/17 07:42:03;;;;;;;4.53;1.70;;;;;;;11.53;75.98;97762.13;1084513;54;20045;-79
2022/11/17 07:43:05;;;;;;;3.53;1.70;;;;;;;11.62;75.60;97760.03;1084664;54;20034;-78
2022/11/17 07:44:11;;;;;;;3.58;1.48;;;;;;;11.70;75.09;97761.69;1084755;46;20038;-80
2022/11/17 07:45:13;;;;;;;4.90;1.60;;;;;;;11.63;75.55;97766.22;1084599;54;20049;-79
2022/11/17 07:46:19;;;;;;;4.03;1.58;;;;;;;11.50;75.64;97777.75;1087118;54;20069;-80
2022/11/17 07:47:21;;;;;;;3.70;1.90;;;;;;;11.56;75.54;97771.56;1088423;46;20043;-80
2022/11/17 07:48:26;;;;;;;4.85;1.60;;;;;;;11.65;75.15;97769.53;1086445;54;20102;-80
2022/11/17 07:49:29;;;;;;;3.88;1.73;;;;;;;11.63;75.07;97774.25;1087017;54;20073;-79
2022/11/17 07:50:35;;;;;;;4.20;1.88;;;;;;;11.67;75.42;97768.28;1087666;54;20011;-79
2022/11/17 07:51:37;;;;;;;3.35;1.63;;;;;;;11.70;75.09;97764.34;1087701;54;20017;-79
2022/11/17 07:53:11;;;;;;;4.95;1.45;;;;;;;11.70;74.67;97764.34;1087520;46;20026;-79
2022/11/17 07:54:12;;;;;;;4.43;1.90;;;;;;;11.74;74.61;97762.09;1086104;54;20110;-80
2022/11/17 07:55:23;;;;;;;5.90;1.75;;;;;;;11.75;74.74;97761.06;1085998;54;20046;-79
2022/11/17 07:56:28;;;;;;;6.13;1.60;;;;;;;11.66;75.02;97765.81;1086363;46;20046;-77
2022/11/17 07:57:32;;;;;;;4.25;1.60;;;;;;;11.80;74.52;97750.56;1086923;46;20049;-79
2022/11/17 07:58:36;;;;;;;3.70;1.50;;;;;;;11.77;74.44;97748.28;1085448;54;20034;-79
2022/11/17 07:59:40;;;;;;;3.72;1.60;;;;;;;11.73;74.42;97761.28;1085139;54;20057;-79
2022/11/17 08:00:45;;;;;;;5.50;1.60;;;;;;;11.76;74.50;97758.16;1084495;54;20034;-80
2022/11/17 08:01:46;;;;;;;3.88;1.60;;;;;;;11.74;74.47;97762.09;1085125;39;20662;-81
2022/11/17 08:02:50;;;;;;;4.03;1.52;;;;;;;11.80;74.06;97762.09;1084128;54;20043;-81
2022/11/17 08:03:52;;;;;;;3.50;1.50;;;;;;;11.90;74.00;97750.97;1083897;54;20054;-81
2022/11/17 08:04:56;;;;;;;4.50;1.50;;;;;;;11.81;73.97;97763.72;1084647;39;20429;-78
2022/11/17 08:06:03;;;;;;;3.80;1.55;;;;;;;11.89;73.84;97764.53;1084731;54;20077;-81
2022/11/17 08:07:04;;;;;;;4.53;1.88;;;;;;;11.77;74.06;97761.69;1084395;46;20102;-79
2022/11/17 08:08:09;;;;;;;5.13;2.00;;;;;;;11.67;74.19;97757.56;1084375;46;20042;-79
2022/11/17 08:09:13;;;;;;;5.60;1.80;;;;;;;11.69;74.16;97758.19;1084194;54;20560;-79
2022/11/17 08:10:17;;;;;;;5.13;1.80;;;;;;;11.76;74.09;97765.38;1083943;54;20053;-80
2022/11/17 08:11:18;;;;;;;4.53;1.80;;;;;;;11.78;73.65;97768.69;1084264;54;20086;-80
2022/11/17 08:12:23;;;;;;;3.88;1.58;;;;;;;11.85;73.67;97762.25;1084171;54;20046;-79
2022/11/17 08:13:24;;;;;;;3.72;1.65;;;;;;;11.94;73.33;97765.56;1084106;54;20046;-78
2022/11/17 08:14:28;;;;;;;4.35;1.75;;;;;;;12.00;73.03;97775.44;1084286;54;20038;-78